createdAt,value
2023-03-25T00:02:23.831Z,6.40
2023-03-25T00:04:56.295Z,6.50
2023-03-25T00:07:26.055Z,6.50
2023-03-25T00:09:55.565Z,6.60
2023-03-25T00:12:25.001Z,6.70
2023-03-25T00:14:56.174Z,6.70
2023-03-25T00:17:26.914Z,6.80
2023-03-25T00:19:57.957Z,6.90
2023-03-25T00:22:27.564Z,7.00
2023-03-25T00:24:57.163Z,7.00
2023-03-25T00:27:26.378Z,7.00
2023-03-25T00:29:56.097Z,7.10
2023-03-25T00:32:25.417Z,7.00
2023-03-25T00:34:55.496Z,7.10
2023-03-25T00:37:27.493Z,7.00
2023-03-25T00:39:57.057Z,7.00
2023-03-25T00:42:27.398Z,7.00
2023-03-25T00:44:57.013Z,7.00
2023-03-25T00:47:27.349Z,7.00
2023-03-25T00:49:56.962Z,6.90
2023-03-25T00:52:27.782Z,6.90
2023-03-25T00:54:57.680Z,6.90
2023-03-25T00:57:28.226Z,6.90
2023-03-25T00:59:57.845Z,6.80
2023-03-25T01:02:27.984Z,6.80
2023-03-25T01:04:57.865Z,6.70
2023-03-25T01:07:29.671Z,6.70
2023-03-25T01:09:59.354Z,6.60
2023-03-25T01:12:29.130Z,6.70
2023-03-25T01:14:58.816Z,6.80
2023-03-25T01:17:28.546Z,6.90
2023-03-25T01:19:59.134Z,6.80
2023-03-25T01:22:30.110Z,6.70
2023-03-25T01:24:59.861Z,6.70
2023-03-25T01:27:30.720Z,6.70
2023-03-25T01:30:00.706Z,6.80
2023-03-25T01:32:31.275Z,6.90
2023-03-25T01:35:00.514Z,6.80
2023-03-25T01:37:34.379Z,6.80
2023-03-25T01:40:05.613Z,6.90
2023-03-25T01:42:34.807Z,6.90
2023-03-25T01:45:29.506Z,7.00
2023-03-25T01:48:06.711Z,6.90
2023-03-25T01:50:37.562Z,6.90
2023-03-25T01:53:10.690Z,6.90
2023-03-25T01:55:42.152Z,6.80
2023-03-25T01:58:14.494Z,6.80
2023-03-25T02:00:47.928Z,6.80
2023-03-25T02:03:19.474Z,6.80
2023-03-25T02:05:54.580Z,6.90
2023-03-25T02:08:26.386Z,6.90
2023-03-25T02:10:56.720Z,6.90
2023-03-25T02:13:26.413Z,7.00
2023-03-25T02:16:12.762Z,7.00
2023-03-25T02:18:51.587Z,7.00
2023-03-25T02:22:01.480Z,7.00
2023-03-25T02:25:19.734Z,7.00
2023-03-25T02:28:02.460Z,7.00
2023-03-25T02:31:07.387Z,7.00
2023-03-25T02:33:58.151Z,7.10
2023-03-25T02:37:12.327Z,7.00
2023-03-25T02:39:48.359Z,7.10
2023-03-25T02:42:24.476Z,7.10
2023-03-25T02:45:00.155Z,7.10
2023-03-25T02:47:34.902Z,7.10
2023-03-25T02:50:09.066Z,7.10
2023-03-25T02:52:42.372Z,7.10
2023-03-25T02:55:17.020Z,7.10
2023-03-25T02:57:50.018Z,7.20
2023-03-25T03:00:31.102Z,7.20
2023-03-25T03:03:04.320Z,7.20
2023-03-25T03:05:36.148Z,7.20
2023-03-25T03:08:19.325Z,7.20
2023-03-25T03:10:57.464Z,7.20
2023-03-25T03:13:36.479Z,7.20
2023-03-25T03:16:15.583Z,7.20
2023-03-25T03:18:53.121Z,7.20
2023-03-25T03:21:30.399Z,7.20
2023-03-25T03:24:06.731Z,7.20
2023-03-25T03:26:42.068Z,7.20
2023-03-25T03:29:16.642Z,7.20
2023-03-25T03:32:05.828Z,7.20
2023-03-25T03:34:45.195Z,7.20
2023-03-25T03:37:18.504Z,7.20
2023-03-25T03:39:50.540Z,7.20
2023-03-25T03:42:27.971Z,7.20
2023-03-25T03:45:02.829Z,7.20
2023-03-25T03:47:37.157Z,7.10
2023-03-25T03:50:10.681Z,7.10
2023-03-25T03:52:43.696Z,7.10
2023-03-25T03:55:16.516Z,7.10
2023-03-25T03:57:52.788Z,7.10
2023-03-25T04:00:27.305Z,7.10
2023-03-25T04:03:00.464Z,7.10
2023-03-25T04:05:31.304Z,7.10
2023-03-25T04:08:12.159Z,7.10
2023-03-25T04:10:45.924Z,7.10
2023-03-25T04:13:19.114Z,7.00
2023-03-25T04:15:49.415Z,7.00
2023-03-25T04:18:23.598Z,6.90
2023-03-25T04:20:53.399Z,6.90
2023-03-25T04:23:24.161Z,6.80
2023-03-25T04:25:54.463Z,6.70
2023-03-25T04:28:26.177Z,6.70
2023-03-25T04:30:56.030Z,6.80
2023-03-25T04:33:26.623Z,6.80
2023-03-25T04:35:55.831Z,6.70
2023-03-25T04:38:26.034Z,7.00
2023-03-25T04:40:55.263Z,6.60
2023-03-25T04:43:26.437Z,6.70
2023-03-25T04:45:55.797Z,6.70
2023-03-25T04:48:30.232Z,6.60
2023-03-25T04:51:00.541Z,6.60
2023-03-25T04:53:30.181Z,6.60
2023-03-25T04:55:59.432Z,6.70
2023-03-25T04:58:30.870Z,6.60
2023-03-25T05:01:06.407Z,6.60
2023-03-25T05:03:40.307Z,6.70
2023-03-25T05:06:09.793Z,6.70
2023-03-25T05:08:39.688Z,6.70
2023-03-25T05:11:09.431Z,6.70
2023-03-25T05:13:40.880Z,6.80
2023-03-25T05:16:10.467Z,6.80
2023-03-25T05:18:40.079Z,6.80
2023-03-25T05:21:11.633Z,6.80
2023-03-25T05:23:42.139Z,6.80
2023-03-25T05:26:13.404Z,6.90
2023-03-25T05:28:44.807Z,6.90
2023-03-25T05:31:14.556Z,7.00
2023-03-25T05:33:44.234Z,7.10
2023-03-25T05:36:16.610Z,7.10
2023-03-25T05:38:46.452Z,7.10
2023-03-25T05:41:17.164Z,7.20
2023-03-25T05:43:51.003Z,7.30
2023-03-25T05:46:20.976Z,7.40
2023-03-25T05:48:51.536Z,7.40
2023-03-25T05:51:22.126Z,7.50
2023-03-25T05:53:51.427Z,7.60
2023-03-25T05:56:23.336Z,7.60
2023-03-25T05:58:55.158Z,7.70
2023-03-25T06:01:32.547Z,7.80
2023-03-25T06:04:03.908Z,7.80
2023-03-25T06:06:34.597Z,7.80
2023-03-25T06:09:05.849Z,7.80
2023-03-25T06:11:38.809Z,7.80
2023-03-25T06:14:10.171Z,7.90
2023-03-25T06:16:39.864Z,7.90
2023-03-25T06:19:09.693Z,8.00
2023-03-25T06:21:38.913Z,8.00
2023-03-25T06:24:09.750Z,8.00
2023-03-25T06:26:39.125Z,8.00
2023-03-25T06:29:10.205Z,8.10
2023-03-25T06:31:39.993Z,8.10
2023-03-25T06:34:09.645Z,8.20
2023-03-25T06:36:39.403Z,8.20
2023-03-25T06:39:09.170Z,8.20
2023-03-25T06:41:38.604Z,8.30
2023-03-25T06:44:09.896Z,8.30
2023-03-25T06:46:38.944Z,8.40
2023-03-25T06:49:08.542Z,8.50
2023-03-25T06:51:37.810Z,8.50
2023-03-25T06:54:07.871Z,8.60
2023-03-25T06:56:37.923Z,8.60
2023-03-25T06:59:08.026Z,8.70
2023-03-25T07:01:39.317Z,8.80
2023-03-25T07:04:08.926Z,8.80
2023-03-25T07:06:38.106Z,8.90
2023-03-25T07:09:07.767Z,9.00
2023-03-25T07:11:37.267Z,9.10
2023-03-25T07:14:07.236Z,9.20
2023-03-25T07:16:38.070Z,9.20
2023-03-25T07:19:07.657Z,9.20
2023-03-25T07:21:36.974Z,9.40
2023-03-25T07:24:07.127Z,9.50
2023-03-25T07:26:36.331Z,9.60
2023-03-25T07:29:06.716Z,9.70
2023-03-25T07:31:36.229Z,9.60
2023-03-25T07:34:08.851Z,9.80
2023-03-25T07:36:38.601Z,9.80
2023-03-25T07:39:08.527Z,10.00
2023-03-25T07:41:37.866Z,10.10
2023-03-25T07:44:08.032Z,10.20
2023-03-25T07:46:37.930Z,10.30
2023-03-25T07:49:09.417Z,10.30
2023-03-25T07:51:38.734Z,10.50
2023-03-25T07:54:08.315Z,10.40
2023-03-25T07:56:37.835Z,10.40
2023-03-25T07:59:07.611Z,10.20
2023-03-25T08:01:37.363Z,10.20
2023-03-25T08:04:08.991Z,10.30
2023-03-25T08:06:38.687Z,10.30
2023-03-25T08:09:08.547Z,10.30
2023-03-25T08:11:37.748Z,10.50
2023-03-25T08:14:08.165Z,10.50
2023-03-25T08:16:37.417Z,10.60
2023-03-25T08:19:07.011Z,10.70
2023-03-25T08:21:37.760Z,10.80
2023-03-25T08:24:08.028Z,10.90
2023-03-25T08:26:38.951Z,11.10
2023-03-25T08:29:10.363Z,11.20
2023-03-25T08:31:40.748Z,11.40
2023-03-25T08:34:11.206Z,11.50
2023-03-25T08:36:41.951Z,11.60
2023-03-25T08:39:12.119Z,11.70
2023-03-25T08:41:41.629Z,11.70
2023-03-25T08:44:11.904Z,11.70
2023-03-25T08:46:41.410Z,11.70
2023-03-25T08:49:11.992Z,11.80
2023-03-25T08:51:42.713Z,11.80
2023-03-25T08:54:12.396Z,11.70
2023-03-25T08:56:41.643Z,11.60
2023-03-25T08:59:11.737Z,11.60
2023-03-25T09:01:42.530Z,11.50
2023-03-25T09:04:13.071Z,11.50
2023-03-25T09:06:48.229Z,11.40
2023-03-25T09:09:34.176Z,11.50
2023-03-25T09:12:03.570Z,11.60
2023-03-25T09:14:33.297Z,11.80
2023-03-25T09:17:02.785Z,11.80
2023-03-25T09:19:32.476Z,11.90
2023-03-25T09:22:03.148Z,11.80
2023-03-25T09:24:34.479Z,11.80
2023-03-25T09:27:04.181Z,11.80
2023-03-25T09:29:34.274Z,11.90
2023-03-25T09:32:03.958Z,11.90
2023-03-25T09:34:33.630Z,11.90
2023-03-25T09:37:04.810Z,12.10
2023-03-25T09:39:34.800Z,12.20
2023-03-25T09:42:20.746Z,12.30
2023-03-25T09:45:03.019Z,12.30
2023-03-25T09:47:39.638Z,12.30
2023-03-25T09:50:15.949Z,12.30
2023-03-25T09:52:55.373Z,12.40
2023-03-25T09:55:27.879Z,12.40
2023-03-25T09:58:04.736Z,12.30
2023-03-25T10:00:36.067Z,12.30
2023-03-25T10:03:20.406Z,12.50
2023-03-25T10:06:12.716Z,12.60
2023-03-25T10:08:58.726Z,12.60
2023-03-25T10:11:38.651Z,12.60
2023-03-25T10:14:13.493Z,13.00
2023-03-25T10:16:58.244Z,13.00
2023-03-25T10:19:51.319Z,13.00
2023-03-25T10:22:27.927Z,13.00
2023-03-25T10:25:01.959Z,13.00
2023-03-25T10:27:37.332Z,12.90
2023-03-25T10:30:15.534Z,12.90
2023-03-25T10:32:48.530Z,12.90
2023-03-25T10:35:21.911Z,12.80
2023-03-25T10:37:54.483Z,12.60
2023-03-25T10:40:30.265Z,12.60
2023-03-25T10:43:17.265Z,12.50
2023-03-25T10:45:48.691Z,12.40
2023-03-25T10:48:23.205Z,12.40
2023-03-25T10:50:54.205Z,12.20
2023-03-25T10:53:27.565Z,10.20
2023-03-25T10:56:04.085Z,8.80
2023-03-25T10:58:35.710Z,8.50
2023-03-25T11:01:13.557Z,8.40
2023-03-25T11:03:44.657Z,8.40
2023-03-25T11:06:24.522Z,8.40
2023-03-25T11:09:12.581Z,8.40
2023-03-25T11:11:44.077Z,8.50
2023-03-25T11:14:14.766Z,8.70
2023-03-25T11:16:47.928Z,8.90
2023-03-25T11:19:26.380Z,9.00
2023-03-25T11:22:01.100Z,9.10
2023-03-25T11:24:34.644Z,9.30
2023-03-25T11:27:08.863Z,9.50
2023-03-25T11:29:39.588Z,9.50
2023-03-25T11:32:14.534Z,9.60
2023-03-25T11:34:48.846Z,9.60
2023-03-25T11:37:20.178Z,9.70
2023-03-25T11:39:55.907Z,9.70
2023-03-25T11:42:37.120Z,9.70
2023-03-25T11:45:08.545Z,9.90
2023-03-25T11:47:40.755Z,10.70
2023-03-25T11:50:22.625Z,11.90
2023-03-25T11:52:54.789Z,12.50
2023-03-25T11:55:27.749Z,13.10
2023-03-25T11:58:00.677Z,13.80
2023-03-25T12:00:38.354Z,14.70
2023-03-25T12:03:20.389Z,15.40
2023-03-25T12:06:02.141Z,14.20
2023-03-25T12:08:42.834Z,13.00
2023-03-25T12:11:15.833Z,12.50
2023-03-25T12:13:57.810Z,12.10
2023-03-25T12:16:36.634Z,11.90
2023-03-25T12:19:15.328Z,11.90
2023-03-25T12:22:06.838Z,11.70
2023-03-25T12:24:50.251Z,11.80
2023-03-25T12:27:33.146Z,11.70
2023-03-25T12:30:13.061Z,11.70
2023-03-25T12:32:49.372Z,12.60
2023-03-25T12:35:28.781Z,13.60
2023-03-25T12:38:26.975Z,14.00
2023-03-25T12:41:17.573Z,14.40
2023-03-25T12:43:54.956Z,15.10
2023-03-25T12:46:41.691Z,15.10
2023-03-25T12:49:26.723Z,14.90
2023-03-25T12:52:04.639Z,14.80
2023-03-25T12:54:48.147Z,14.50
2023-03-25T12:57:29.479Z,13.80
2023-03-25T13:00:25.779Z,13.40
2023-03-25T13:03:23.080Z,13.10
2023-03-25T13:06:00.913Z,13.50
2023-03-25T13:08:36.595Z,14.00
2023-03-25T13:11:11.806Z,14.30
2023-03-25T13:13:43.191Z,14.20
2023-03-25T13:16:16.466Z,14.00
2023-03-25T13:18:52.049Z,13.40
2023-03-25T13:21:24.432Z,13.00
2023-03-25T13:23:59.939Z,12.80
2023-03-25T13:26:32.832Z,12.60
2023-03-25T13:29:05.767Z,12.40
2023-03-25T13:31:41.385Z,12.40
2023-03-25T13:34:25.734Z,12.70
2023-03-25T13:37:10.413Z,13.50
2023-03-25T13:40:14.687Z,14.30
2023-03-25T13:42:52.086Z,14.50
2023-03-25T13:45:23.238Z,14.60
2023-03-25T13:47:58.519Z,14.10
2023-03-25T13:50:31.973Z,13.50
2023-03-25T13:53:08.703Z,13.10
2023-03-25T13:55:41.498Z,12.80
2023-03-25T13:58:33.450Z,12.50
2023-03-25T14:01:37.301Z,11.80
2023-03-25T14:04:48.984Z,11.00
2023-03-25T14:07:54.662Z,10.30
2023-03-25T14:10:51.429Z,9.90
2023-03-25T14:13:26.906Z,9.50
2023-03-25T14:16:02.417Z,9.40
2023-03-25T14:18:33.009Z,9.50
2023-03-25T14:21:13.992Z,9.50
2023-03-25T14:23:44.541Z,9.60
2023-03-25T14:26:19.450Z,9.80
2023-03-25T14:28:51.599Z,9.90
2023-03-25T14:31:32.176Z,10.10
2023-03-25T14:34:29.257Z,10.70
2023-03-25T14:37:27.715Z,11.50
2023-03-25T14:40:00.329Z,12.30
2023-03-25T14:42:43.730Z,12.50
2023-03-25T14:45:43.539Z,12.10
2023-03-25T14:48:34.807Z,12.40
2023-03-25T14:51:23.865Z,12.70
2023-03-25T14:53:56.839Z,12.30
2023-03-25T14:56:33.870Z,11.80
2023-03-25T14:59:10.835Z,11.60
2023-03-25T15:01:42.374Z,11.50
2023-03-25T15:04:16.835Z,11.60
2023-03-25T15:06:49.418Z,11.60
2023-03-25T15:09:21.017Z,12.00
2023-03-25T15:11:58.867Z,12.20
2023-03-25T15:14:33.540Z,12.50
2023-03-25T15:17:07.272Z,12.80
2023-03-25T15:20:15.990Z,12.90
2023-03-25T15:22:45.740Z,12.90
2023-03-25T15:25:18.993Z,13.20
2023-03-25T15:28:04.271Z,13.20
2023-03-25T15:31:01.443Z,13.20
2023-03-25T15:33:47.682Z,13.00
2023-03-25T15:36:46.990Z,12.90
2023-03-25T15:39:36.088Z,12.70
2023-03-25T15:42:40.408Z,12.50
2023-03-25T15:45:37.945Z,12.30
2023-03-25T15:48:36.674Z,12.10
2023-03-25T15:51:32.998Z,11.90
2023-03-25T15:54:31.449Z,11.80
2023-03-25T15:57:06.623Z,11.80
2023-03-25T15:59:43.521Z,11.60
2023-03-25T16:02:28.033Z,11.50
2023-03-25T16:05:00.129Z,11.40
2023-03-25T16:07:31.796Z,11.10
2023-03-25T16:10:14.956Z,10.80
2023-03-25T16:12:46.057Z,10.50
2023-03-25T16:15:17.106Z,10.20
2023-03-25T16:17:48.417Z,10.10
2023-03-25T16:20:23.492Z,10.10
2023-03-25T16:22:55.278Z,10.00
2023-03-25T16:25:28.669Z,9.90
2023-03-25T16:27:59.132Z,9.90
2023-03-25T16:30:34.103Z,9.90
2023-03-25T16:33:17.679Z,9.80
2023-03-25T16:35:51.829Z,9.80
2023-03-25T16:38:23.065Z,9.80
2023-03-25T16:40:53.245Z,9.70
2023-03-25T16:43:26.497Z,9.70
2023-03-25T16:46:00.121Z,9.60
2023-03-25T16:48:31.532Z,9.60
2023-03-25T16:51:08.910Z,9.50
2023-03-25T16:53:40.924Z,9.50
2023-03-25T16:56:25.296Z,9.40
2023-03-25T16:59:00.437Z,9.50
2023-03-25T17:01:33.695Z,9.40
2023-03-25T17:04:19.091Z,9.40
2023-03-25T17:06:53.626Z,9.40
2023-03-25T17:09:25.357Z,9.40
2023-03-25T17:11:57.912Z,9.30
2023-03-25T17:14:31.788Z,9.30
2023-03-25T17:17:09.782Z,9.30
2023-03-25T17:19:46.435Z,9.30
2023-03-25T17:22:25.549Z,9.30
2023-03-25T17:24:58.419Z,9.20
2023-03-25T17:27:34.852Z,9.20
2023-03-25T17:30:22.122Z,9.10
2023-03-25T17:32:53.492Z,9.10
2023-03-25T17:35:25.604Z,9.10
2023-03-25T17:37:59.136Z,9.10
2023-03-25T17:40:30.790Z,9.10
2023-03-25T17:43:00.466Z,9.00
2023-03-25T17:45:30.129Z,9.00
2023-03-25T17:47:59.745Z,9.00
2023-03-25T17:50:29.008Z,8.90
2023-03-25T17:52:59.982Z,8.90
2023-03-25T17:55:29.560Z,8.90
2023-03-25T17:57:59.818Z,8.90
2023-03-25T18:00:29.159Z,8.90
2023-03-25T18:02:59.129Z,8.70
2023-03-25T18:05:28.578Z,8.70
2023-03-25T18:08:00.222Z,8.70
2023-03-25T18:10:31.222Z,8.70
2023-03-25T18:13:00.983Z,8.70
2023-03-25T18:15:30.406Z,8.60
2023-03-25T18:18:00.171Z,8.60
2023-03-25T18:20:32.486Z,8.50
2023-03-25T18:23:03.861Z,8.50
2023-03-25T18:25:34.623Z,8.50
2023-03-25T18:28:04.381Z,8.30
2023-03-25T18:30:42.195Z,8.20
2023-03-25T18:33:12.031Z,8.20
2023-03-25T18:35:42.700Z,8.30
2023-03-25T18:38:19.466Z,8.20
2023-03-25T18:40:49.683Z,8.10
2023-03-25T18:43:19.926Z,8.20
2023-03-25T18:45:50.423Z,8.20
2023-03-25T18:48:22.521Z,8.10
2023-03-25T18:50:55.509Z,8.00
2023-03-25T18:53:28.722Z,8.00
2023-03-25T18:56:00.383Z,7.90
2023-03-25T18:58:33.169Z,7.80
2023-03-25T19:01:03.954Z,7.70
2023-03-25T19:03:39.118Z,7.60
2023-03-25T19:06:11.014Z,7.40
2023-03-25T19:08:43.575Z,7.40
2023-03-25T19:11:21.066Z,7.20
2023-03-25T19:13:51.992Z,7.20
2023-03-25T19:16:22.459Z,7.10
2023-03-25T19:18:51.961Z,7.00
2023-03-25T19:21:22.125Z,6.90
2023-03-25T19:23:53.829Z,6.90
2023-03-25T19:26:23.061Z,6.80
2023-03-25T19:28:52.778Z,6.70
2023-03-25T19:31:22.068Z,6.70
2023-03-25T19:33:53.199Z,6.60
2023-03-25T19:36:23.337Z,6.60
2023-03-25T19:38:56.511Z,6.50
2023-03-25T19:41:25.866Z,6.60
2023-03-25T19:43:55.704Z,6.60
2023-03-25T19:46:25.438Z,6.60
2023-03-25T19:48:55.219Z,6.60
2023-03-25T19:51:24.416Z,6.50
2023-03-25T19:53:55.564Z,6.50
2023-03-25T19:56:25.046Z,6.40
2023-03-25T19:58:54.617Z,6.30
2023-03-25T20:01:24.723Z,6.30
2023-03-25T20:03:54.881Z,6.30
2023-03-25T20:06:24.289Z,6.20
2023-03-25T20:08:55.913Z,6.20
2023-03-25T20:11:25.132Z,6.20
2023-03-25T20:13:54.923Z,6.20
2023-03-25T20:16:24.259Z,6.20
2023-03-25T20:18:54.205Z,6.10
2023-03-25T20:21:25.210Z,6.10
2023-03-25T20:23:56.472Z,6.00
2023-03-25T20:26:25.954Z,6.00
2023-03-25T20:28:55.697Z,5.90
2023-03-25T20:31:25.969Z,5.90
2023-03-25T20:33:56.267Z,6.00
2023-03-25T20:36:25.608Z,5.90
2023-03-25T20:38:58.167Z,5.90
2023-03-25T20:41:28.076Z,5.90
2023-03-25T20:43:57.630Z,5.90
2023-03-25T20:46:29.069Z,5.90
2023-03-25T20:48:59.739Z,5.90
2023-03-25T20:51:29.087Z,5.80
2023-03-25T20:54:00.387Z,5.80
2023-03-25T20:56:29.765Z,5.70
2023-03-25T20:58:59.593Z,5.70
2023-03-25T21:01:28.937Z,5.60
2023-03-25T21:03:58.901Z,5.60
2023-03-25T21:06:28.672Z,5.50
2023-03-25T21:09:06.857Z,5.50
2023-03-25T21:11:36.864Z,5.50
2023-03-25T21:14:06.834Z,5.50
2023-03-25T21:16:36.100Z,5.40
2023-03-25T21:19:08.141Z,5.30
2023-03-25T21:21:38.918Z,5.30
2023-03-25T21:24:11.600Z,5.30
2023-03-25T21:26:41.185Z,5.30
2023-03-25T21:29:11.005Z,5.20
2023-03-25T21:31:40.979Z,5.20
2023-03-25T21:34:11.400Z,5.20
2023-03-25T21:36:40.952Z,5.20
2023-03-25T21:39:12.649Z,5.30
2023-03-25T21:41:42.139Z,5.30
2023-03-25T21:44:12.897Z,5.40
2023-03-25T21:46:42.533Z,5.50
2023-03-25T21:49:14.562Z,5.70
2023-03-25T21:51:44.559Z,5.80
2023-03-25T21:54:15.831Z,5.90
2023-03-25T21:56:44.678Z,6.10
2023-03-25T21:59:14.292Z,6.20
2023-03-25T22:01:43.562Z,6.30
2023-03-25T22:04:13.160Z,6.40
2023-03-25T22:06:42.566Z,6.50
2023-03-25T22:09:12.468Z,6.50
2023-03-25T22:11:43.235Z,6.50
2023-03-25T22:14:12.925Z,6.60
2023-03-25T22:16:42.317Z,6.60
2023-03-25T22:19:14.596Z,6.60
2023-03-25T22:21:43.968Z,6.60
2023-03-25T22:24:13.619Z,6.70
2023-03-25T22:26:44.656Z,6.70
2023-03-25T22:29:14.323Z,6.70
2023-03-25T22:31:43.687Z,6.70
2023-03-25T22:34:15.841Z,6.70
2023-03-25T22:36:50.882Z,6.70
2023-03-25T22:39:23.373Z,6.70
2023-03-25T22:41:54.548Z,6.70
2023-03-25T22:44:24.746Z,6.60
2023-03-25T22:46:54.109Z,6.60
2023-03-25T22:49:24.175Z,6.60
2023-03-25T22:51:54.409Z,6.60
2023-03-25T22:54:24.311Z,6.60
2023-03-25T22:56:55.491Z,6.60
2023-03-25T22:59:25.258Z,6.60
2023-03-25T23:01:54.744Z,6.60
2023-03-25T23:04:24.521Z,6.60
2023-03-25T23:07:05.061Z,6.60
2023-03-25T23:09:42.747Z,6.60
2023-03-25T23:12:17.158Z,6.60
2023-03-25T23:14:51.162Z,6.70
2023-03-25T23:17:20.479Z,6.70
2023-03-25T23:19:50.572Z,6.80
2023-03-25T23:22:21.424Z,6.70
2023-03-25T23:24:50.985Z,6.80
2023-03-25T23:27:22.802Z,6.80
2023-03-25T23:29:52.540Z,6.80
2023-03-25T23:32:21.842Z,6.80
2023-03-25T23:34:51.506Z,6.80
2023-03-25T23:37:20.700Z,6.70
2023-03-25T23:39:50.933Z,6.70
2023-03-25T23:42:21.601Z,6.70
2023-03-25T23:44:51.295Z,6.70
2023-03-25T23:47:20.974Z,6.80
2023-03-25T23:49:50.531Z,6.80
2023-03-25T23:52:20.280Z,6.80
2023-03-25T23:54:50.184Z,6.90
2023-03-25T23:57:21.432Z,7.00
2023-03-25T23:59:51.646Z,6.90
